createdAt,value
2018-12-09T00:00:51.031Z,8.84
2018-12-09T00:03:26.697Z,9.00
2018-12-09T00:06:02.435Z,9.16
2018-12-09T00:08:33.858Z,9.17
2018-12-09T00:11:09.462Z,9.24
2018-12-09T00:13:45.146Z,9.38
2018-12-09T00:16:20.920Z,9.44
2018-12-09T00:18:58.574Z,9.46
2018-12-09T00:21:34.376Z,9.27
2018-12-09T00:24:10.274Z,9.28
2018-12-09T00:26:45.933Z,9.27
2018-12-09T00:29:21.724Z,9.37
2018-12-09T00:31:57.659Z,9.43
2018-12-09T00:34:33.292Z,9.44
2018-12-09T00:37:09.131Z,9.39
2018-12-09T00:39:44.919Z,9.59
2018-12-09T00:42:20.609Z,9.53
2018-12-09T00:44:56.260Z,9.26
2018-12-09T00:47:31.905Z,9.15
2018-12-09T00:52:49.984Z,8.83
2018-12-09T00:55:25.885Z,8.68
2018-12-09T00:58:01.786Z,8.55
2018-12-09T01:00:37.487Z,8.44
2018-12-09T01:03:13.104Z,8.48
2018-12-09T01:05:48.772Z,8.45
2018-12-09T01:08:24.472Z,8.30
2018-12-09T01:11:00.264Z,8.15
2018-12-09T01:13:35.867Z,8.02
2018-12-09T01:16:11.544Z,7.96
2018-12-09T01:18:48.859Z,8.09
2018-12-09T01:21:24.607Z,8.14
2018-12-09T01:24:00.295Z,8.46
2018-12-09T01:26:36.312Z,8.46
2018-12-09T01:29:12.004Z,8.40
2018-12-09T01:31:47.758Z,8.30
2018-12-09T01:34:23.911Z,8.15
2018-12-09T01:36:59.742Z,8.13
2018-12-09T01:39:35.537Z,8.19
2018-12-09T01:42:11.977Z,8.18
2018-12-09T01:44:47.687Z,8.22
2018-12-09T01:47:23.293Z,8.21
2018-12-09T01:49:59.275Z,8.34
2018-12-09T01:52:35.194Z,8.62
2018-12-09T01:55:10.955Z,8.72
2018-12-09T01:57:46.885Z,8.75
2018-12-09T02:00:22.931Z,8.71
2018-12-09T02:02:58.708Z,8.73
2018-12-09T02:05:34.879Z,8.70
2018-12-09T02:08:10.703Z,8.73
2018-12-09T02:10:46.409Z,8.80
2018-12-09T02:13:22.756Z,8.65
2018-12-09T02:15:59.200Z,8.56
2018-12-09T02:18:35.020Z,8.52
2018-12-09T02:21:10.751Z,8.66
2018-12-09T02:23:46.995Z,8.37
2018-12-09T02:26:23.857Z,8.20
2018-12-09T02:28:59.628Z,7.97
2018-12-09T02:31:35.628Z,7.76
2018-12-09T02:34:11.572Z,7.75
2018-12-09T02:36:47.631Z,7.71
2018-12-09T02:39:23.279Z,7.63
2018-12-09T02:41:59.005Z,7.56
2018-12-09T02:44:34.769Z,7.46
2018-12-09T02:47:11.393Z,7.46
2018-12-09T02:49:47.243Z,7.59
2018-12-09T02:52:22.869Z,7.90
2018-12-09T02:54:58.559Z,7.90
2018-12-09T02:57:34.771Z,8.08
2018-12-09T03:00:10.832Z,8.04
2018-12-09T03:02:46.480Z,8.12
2018-12-09T03:05:22.172Z,8.15
2018-12-09T03:07:57.877Z,8.22
2018-12-09T03:10:34.048Z,8.18
2018-12-09T03:13:09.784Z,8.23
2018-12-09T03:15:45.434Z,8.28
2018-12-09T03:18:21.194Z,8.20
2018-12-09T03:20:56.848Z,8.14
2018-12-09T03:23:32.980Z,8.06
2018-12-09T03:26:08.749Z,8.30
2018-12-09T03:28:44.606Z,8.42
2018-12-09T03:31:21.540Z,8.51
2018-12-09T03:33:57.414Z,8.46
2018-12-09T03:36:33.195Z,8.43
2018-12-09T03:39:10.219Z,8.26
2018-12-09T03:41:46.034Z,8.15
2018-12-09T03:44:21.684Z,8.44
2018-12-09T03:46:58.044Z,8.45
2018-12-09T03:49:33.694Z,8.39
2018-12-09T03:52:10.306Z,8.49
2018-12-09T03:54:46.382Z,8.38
2018-12-09T03:57:22.197Z,8.30
2018-12-09T03:59:57.898Z,8.15
2018-12-09T04:02:33.802Z,8.24
2018-12-09T04:05:09.679Z,8.18
2018-12-09T04:07:45.567Z,8.14
2018-12-09T04:10:21.223Z,8.38
2018-12-09T04:12:56.804Z,8.41
2018-12-09T04:15:36.452Z,8.58
2018-12-09T04:18:12.210Z,8.75
2018-12-09T04:20:47.974Z,8.65
2018-12-09T04:23:23.866Z,8.65
2018-12-09T04:25:59.556Z,8.70
2018-12-09T04:28:35.236Z,8.73
2018-12-09T04:31:11.002Z,8.64
2018-12-09T04:33:46.705Z,8.61
2018-12-09T04:36:22.336Z,8.50
2018-12-09T04:38:57.994Z,8.28
2018-12-09T04:41:33.956Z,8.01
2018-12-09T04:44:09.811Z,7.67
2018-12-09T04:46:46.072Z,7.41
2018-12-09T04:49:22.028Z,7.42
2018-12-09T04:51:59.559Z,7.29
2018-12-09T04:54:35.393Z,7.21
2018-12-09T04:57:11.060Z,7.21
2018-12-09T04:59:50.269Z,7.11
2018-12-09T05:02:25.971Z,7.04
2018-12-09T05:05:01.696Z,7.00
2018-12-09T05:07:37.312Z,6.97
2018-12-09T05:10:13.001Z,6.98
2018-12-09T05:12:48.702Z,6.92
2018-12-09T05:15:24.810Z,6.89
2018-12-09T05:18:00.476Z,6.84
2018-12-09T05:20:36.671Z,6.82
2018-12-09T05:23:12.443Z,6.87
2018-12-09T05:25:48.167Z,6.90
2018-12-09T05:28:24.321Z,6.85
2018-12-09T05:31:00.286Z,6.79
2018-12-09T05:33:36.075Z,6.72
2018-12-09T05:36:11.820Z,6.64
2018-12-09T05:38:48.171Z,6.59
2018-12-09T05:41:23.797Z,6.55
2018-12-09T05:43:59.425Z,6.55
2018-12-09T05:46:35.230Z,6.63
2018-12-09T05:49:10.881Z,6.56
2018-12-09T05:51:46.618Z,6.42
2018-12-09T05:54:22.242Z,6.34
2018-12-09T05:56:57.964Z,6.31
2018-12-09T05:59:33.700Z,6.24
2018-12-09T06:02:25.963Z,6.31
2018-12-09T06:05:01.573Z,6.30
2018-12-09T06:07:39.176Z,6.29
2018-12-09T06:10:15.295Z,6.30
2018-12-09T06:12:50.879Z,6.34
2018-12-09T06:15:26.566Z,6.38
2018-12-09T06:18:02.614Z,6.41
2018-12-09T06:20:38.616Z,6.44
2018-12-09T06:23:14.399Z,5.75
2018-12-09T06:25:49.946Z,4.81
2018-12-09T06:28:25.598Z,4.35
2018-12-09T06:31:01.117Z,4.16
2018-12-09T06:33:36.726Z,4.02
2018-12-09T06:36:12.404Z,3.99
2018-12-09T06:38:47.901Z,3.98
2018-12-09T06:41:23.503Z,3.98
2018-12-09T06:43:59.038Z,3.96
2018-12-09T06:46:34.661Z,3.97
2018-12-09T06:49:10.260Z,4.02
2018-12-09T06:51:45.932Z,4.09
2018-12-09T06:54:21.543Z,4.19
2018-12-09T06:56:57.612Z,4.29
2018-12-09T06:59:34.179Z,4.36
2018-12-09T07:02:09.797Z,4.36
2018-12-09T07:04:46.029Z,4.40
2018-12-09T07:07:21.672Z,4.46
2018-12-09T07:09:58.404Z,4.50
2018-12-09T07:12:34.091Z,4.61
2018-12-09T07:15:10.285Z,4.70
2018-12-09T07:17:45.927Z,4.71
2018-12-09T07:20:21.472Z,4.84
2018-12-09T07:22:57.044Z,4.95
2018-12-09T07:25:32.753Z,4.99
2018-12-09T07:30:51.828Z,5.17
2018-12-09T07:33:27.389Z,5.24
2018-12-09T07:36:03.061Z,5.26
2018-12-09T07:38:38.667Z,5.31
2018-12-09T07:41:14.701Z,5.31
2018-12-09T07:43:50.401Z,5.33
2018-12-09T07:46:25.972Z,5.43
2018-12-09T07:49:02.155Z,5.43
2018-12-09T07:51:37.847Z,5.54
2018-12-09T07:54:13.542Z,5.62
2018-12-09T07:56:49.539Z,5.57
2018-12-09T07:59:25.099Z,5.64
2018-12-09T08:02:00.868Z,5.66
2018-12-09T08:04:36.594Z,5.64
2018-12-09T08:07:12.168Z,5.71
2018-12-09T08:09:47.777Z,5.63
2018-12-09T08:12:23.459Z,5.68
2018-12-09T08:14:59.044Z,5.68
2018-12-09T08:17:34.706Z,5.77
2018-12-09T08:20:10.540Z,5.83
2018-12-09T08:22:46.230Z,5.80
2018-12-09T08:25:21.766Z,5.82
2018-12-09T08:27:57.368Z,5.90
2018-12-09T08:30:33.041Z,5.98
2018-12-09T08:33:08.727Z,6.03
2018-12-09T08:35:44.319Z,6.08
2018-12-09T08:38:20.893Z,6.11
2018-12-09T08:40:56.573Z,6.19
2018-12-09T08:43:32.136Z,6.24
2018-12-09T08:46:08.903Z,6.27
2018-12-09T08:48:44.457Z,6.31
2018-12-09T08:51:20.151Z,6.33
2018-12-09T08:53:55.813Z,6.33
2018-12-09T08:56:31.538Z,6.40
2018-12-09T08:59:07.285Z,6.48
2018-12-09T09:01:43.023Z,6.55
2018-12-09T09:04:18.744Z,6.52
2018-12-09T09:06:54.488Z,6.47
2018-12-09T09:09:30.208Z,6.63
2018-12-09T09:12:06.045Z,6.67
2018-12-09T09:14:41.747Z,6.67
2018-12-09T09:17:17.482Z,6.69
2018-12-09T09:19:53.279Z,6.69
2018-12-09T09:22:28.992Z,6.56
2018-12-09T09:25:04.793Z,6.51
2018-12-09T09:27:40.413Z,6.60
2018-12-09T09:30:17.399Z,6.68
2018-12-09T09:32:53.116Z,6.67
2018-12-09T09:35:28.666Z,6.73
2018-12-09T09:38:05.243Z,6.71
2018-12-09T09:40:40.869Z,6.64
2018-12-09T09:43:16.693Z,6.57
2018-12-09T09:45:52.442Z,6.66
2018-12-09T09:48:28.195Z,6.72
2018-12-09T09:51:04.104Z,6.81
2018-12-09T09:53:39.774Z,6.81
2018-12-09T09:56:15.730Z,6.82
2018-12-09T09:58:51.420Z,6.81
2018-12-09T10:01:27.157Z,6.85
2018-12-09T10:04:03.807Z,6.85
2018-12-09T10:06:39.719Z,6.89
2018-12-09T10:09:15.566Z,6.93
2018-12-09T10:11:51.376Z,6.97
2018-12-09T10:14:27.208Z,6.96
2018-12-09T10:17:03.533Z,6.90
2018-12-09T10:19:39.409Z,6.90
2018-12-09T10:22:15.446Z,7.09
2018-12-09T10:24:51.225Z,7.36
2018-12-09T10:27:27.024Z,7.72
2018-12-09T10:30:05.131Z,9.05
2018-12-09T10:32:40.858Z,9.19
2018-12-09T10:35:16.484Z,8.16
2018-12-09T10:37:52.240Z,7.73
2018-12-09T10:40:27.918Z,7.45
2018-12-09T10:43:03.957Z,7.37
2018-12-09T10:45:40.275Z,7.34
2018-12-09T10:48:16.140Z,7.25
2018-12-09T10:50:52.044Z,7.12
2018-12-09T10:53:28.076Z,7.13
2018-12-09T10:56:04.777Z,7.09
2018-12-09T10:58:40.555Z,7.15
2018-12-09T11:01:21.441Z,7.09
2018-12-09T11:03:58.048Z,7.02
2018-12-09T11:06:33.893Z,7.09
2018-12-09T11:09:09.490Z,7.11
2018-12-09T11:11:45.197Z,7.07
2018-12-09T11:14:21.840Z,6.99
2018-12-09T11:16:57.574Z,6.88
2018-12-09T11:19:33.190Z,6.84
2018-12-09T11:22:09.161Z,6.90
2018-12-09T11:24:44.950Z,6.67
2018-12-09T11:27:20.695Z,6.39
2018-12-09T11:29:59.129Z,6.32
2018-12-09T11:32:35.905Z,6.17
2018-12-09T11:35:11.480Z,5.98
2018-12-09T11:37:47.068Z,5.91
2018-12-09T11:40:22.699Z,5.81
2018-12-09T11:42:58.393Z,5.76
2018-12-09T11:45:33.999Z,5.67
2018-12-09T11:48:09.655Z,5.56
2018-12-09T11:50:45.236Z,5.48
2018-12-09T11:53:21.792Z,5.47
2018-12-09T11:55:57.463Z,5.40
2018-12-09T11:58:33.176Z,5.29
2018-12-09T12:01:08.799Z,5.26
2018-12-09T12:03:44.615Z,5.26
2018-12-09T12:06:20.276Z,5.23
2018-12-09T12:08:55.867Z,5.21
2018-12-09T12:11:31.588Z,5.18
2018-12-09T12:14:07.262Z,5.19
2018-12-09T12:16:42.943Z,5.19
2018-12-09T12:19:18.714Z,5.15
2018-12-09T12:21:54.336Z,5.16
2018-12-09T12:24:29.881Z,5.18
2018-12-09T12:27:05.546Z,5.19
2018-12-09T12:29:41.269Z,5.17
2018-12-09T12:32:17.054Z,5.15
2018-12-09T12:34:52.706Z,5.12
2018-12-09T12:37:29.187Z,5.13
2018-12-09T12:40:05.219Z,5.14
2018-12-09T12:42:40.864Z,5.08
2018-12-09T12:45:16.564Z,5.08
2018-12-09T12:47:52.951Z,5.14
2018-12-09T12:50:28.800Z,5.15
2018-12-09T12:53:04.503Z,5.15
2018-12-09T12:55:41.124Z,5.18
2018-12-09T12:58:16.643Z,5.39
2018-12-09T13:00:54.230Z,5.48
2018-12-09T13:03:29.950Z,5.49
2018-12-09T13:06:05.802Z,5.43
2018-12-09T13:08:41.664Z,5.42
2018-12-09T13:11:17.330Z,5.38
2018-12-09T13:13:53.154Z,5.40
2018-12-09T13:16:28.884Z,5.38
2018-12-09T13:19:04.472Z,5.40
2018-12-09T13:21:40.076Z,5.36
2018-12-09T13:24:16.529Z,5.34
2018-12-09T13:26:47.231Z,5.34
2018-12-09T13:29:23.524Z,5.35
2018-12-09T13:32:00.703Z,5.39
2018-12-09T13:34:36.506Z,5.38
2018-12-09T13:37:12.161Z,5.42
2018-12-09T13:39:47.743Z,5.47
2018-12-09T13:42:23.218Z,5.50
2018-12-09T13:44:59.099Z,5.41
2018-12-09T13:47:34.752Z,5.40
2018-12-09T13:50:10.704Z,5.35
2018-12-09T13:52:48.574Z,5.36
2018-12-09T13:55:24.142Z,5.37
2018-12-09T13:57:59.716Z,5.36
2018-12-09T14:00:35.294Z,5.44
2018-12-09T14:03:10.923Z,5.49
2018-12-09T14:05:46.604Z,5.47
2018-12-09T14:08:22.321Z,5.53
2018-12-09T14:10:58.002Z,5.51
2018-12-09T14:13:33.577Z,5.56
2018-12-09T14:16:09.393Z,5.60
2018-12-09T14:18:45.056Z,5.61
2018-12-09T14:21:20.839Z,5.63
2018-12-09T14:23:56.358Z,5.69
2018-12-09T14:26:31.925Z,5.79
2018-12-09T14:29:07.626Z,5.94
2018-12-09T14:31:43.948Z,5.96
2018-12-09T14:34:19.671Z,6.02
2018-12-09T14:36:56.452Z,6.00
2018-12-09T14:39:34.303Z,5.93
2018-12-09T14:42:09.931Z,5.93
2018-12-09T14:44:45.668Z,5.94
2018-12-09T14:47:21.412Z,5.95
2018-12-09T14:49:57.885Z,5.92
2018-12-09T14:52:33.488Z,5.88
2018-12-09T14:55:10.503Z,5.88
2018-12-09T14:57:46.682Z,5.87
2018-12-09T15:00:22.292Z,5.85
2018-12-09T15:02:57.939Z,5.87
2018-12-09T15:05:33.592Z,5.82
2018-12-09T15:08:09.234Z,5.79
2018-12-09T15:10:45.157Z,5.73
2018-12-09T15:13:20.821Z,5.72
2018-12-09T15:15:56.529Z,5.69
2018-12-09T15:18:32.135Z,5.62
2018-12-09T15:21:07.743Z,5.60
2018-12-09T15:23:43.412Z,5.53
2018-12-09T15:26:19.110Z,5.46
2018-12-09T15:28:55.343Z,5.44
2018-12-09T15:31:31.085Z,5.41
2018-12-09T15:34:06.640Z,5.39
2018-12-09T15:36:42.481Z,5.42
2018-12-09T15:39:18.131Z,5.43
2018-12-09T15:41:53.686Z,5.39
2018-12-09T15:44:29.448Z,5.45
2018-12-09T15:47:05.240Z,5.42
2018-12-09T15:49:40.965Z,5.45
2018-12-09T15:52:17.978Z,5.42
2018-12-09T15:54:53.713Z,5.39
2018-12-09T15:57:29.477Z,5.36
2018-12-09T16:00:05.769Z,5.35
2018-12-09T16:02:41.352Z,5.32
2018-12-09T16:05:17.161Z,5.32
2018-12-09T16:07:52.783Z,5.29
2018-12-09T16:10:28.439Z,5.25
2018-12-09T16:13:04.206Z,5.22
2018-12-09T16:15:39.920Z,5.20
2018-12-09T16:18:15.582Z,5.16
2018-12-09T16:20:51.356Z,5.14
2018-12-09T16:23:27.011Z,5.18
2018-12-09T16:26:02.699Z,5.22
2018-12-09T16:28:38.335Z,5.23
2018-12-09T16:31:14.016Z,5.27
2018-12-09T16:33:49.739Z,5.26
2018-12-09T16:36:25.488Z,5.33
2018-12-09T16:39:01.121Z,5.40
2018-12-09T16:41:37.157Z,5.46
2018-12-09T16:44:12.849Z,5.50
2018-12-09T16:46:50.233Z,5.57
2018-12-09T16:49:25.840Z,5.59
2018-12-09T16:52:01.611Z,5.67
2018-12-09T16:54:37.275Z,5.63
2018-12-09T16:57:14.474Z,5.65
2018-12-09T16:59:50.296Z,5.60
2018-12-09T17:02:26.028Z,5.44
2018-12-09T17:05:01.918Z,5.35
2018-12-09T17:07:42.121Z,5.29
2018-12-09T17:10:15.120Z,5.22
2018-12-09T17:12:50.725Z,5.23
2018-12-09T17:15:26.484Z,5.20
2018-12-09T17:18:02.064Z,5.19
2018-12-09T17:20:37.700Z,5.18
2018-12-09T17:23:13.264Z,5.15
2018-12-09T17:25:49.034Z,5.15
2018-12-09T17:28:24.975Z,5.10
2018-12-09T17:31:00.634Z,5.09
2018-12-09T17:33:36.285Z,5.07
2018-12-09T17:36:12.045Z,5.09
2018-12-09T17:38:47.709Z,5.06
2018-12-09T17:41:25.231Z,5.06
2018-12-09T17:44:01.220Z,5.03
2018-12-09T17:46:36.885Z,5.06
2018-12-09T17:49:12.736Z,5.09
2018-12-09T17:51:48.516Z,5.07
2018-12-09T17:54:24.320Z,5.03
2018-12-09T17:56:59.995Z,5.07
2018-12-09T17:59:35.628Z,5.09
2018-12-09T18:02:11.307Z,5.14
2018-12-09T18:04:47.222Z,5.19
2018-12-09T18:07:23.924Z,5.28
2018-12-09T18:09:59.577Z,5.25
2018-12-09T18:12:35.499Z,5.34
2018-12-09T18:15:16.312Z,5.44
2018-12-09T18:17:52.016Z,5.51
2018-12-09T18:20:28.823Z,5.61
2018-12-09T18:23:04.439Z,5.68
2018-12-09T18:25:40.050Z,5.71
2018-12-09T18:28:15.659Z,5.74
2018-12-09T18:30:52.132Z,5.83
2018-12-09T18:33:28.596Z,5.88
2018-12-09T18:36:04.479Z,5.85
2018-12-09T18:38:40.463Z,5.88
2018-12-09T18:41:16.064Z,5.90
2018-12-09T18:43:51.665Z,5.91
2018-12-09T18:46:28.348Z,5.90
2018-12-09T18:49:04.120Z,5.91
2018-12-09T18:51:39.758Z,5.90
2018-12-09T18:54:15.396Z,5.87
2018-12-09T18:56:51.295Z,5.90
2018-12-09T18:59:27.042Z,5.93
2018-12-09T19:02:02.844Z,5.87
2018-12-09T19:04:38.540Z,5.89
2018-12-09T19:07:15.650Z,5.92
2018-12-09T19:09:51.286Z,5.95
2018-12-09T19:12:27.166Z,5.93
2018-12-09T19:15:02.856Z,5.98
2018-12-09T19:17:38.420Z,6.09
2018-12-09T19:20:15.413Z,6.05
2018-12-09T19:22:51.056Z,6.12
2018-12-09T19:25:26.984Z,6.07
2018-12-09T19:28:02.689Z,6.03
2018-12-09T19:30:38.410Z,5.99
2018-12-09T19:33:14.120Z,5.96
2018-12-09T19:38:31.160Z,6.06
2018-12-09T19:41:06.876Z,6.06
2018-12-09T19:43:42.537Z,6.04
2018-12-09T19:46:18.176Z,6.07
2018-12-09T19:48:54.057Z,6.03
2018-12-09T19:51:29.780Z,5.99
2018-12-09T19:54:05.408Z,5.98
2018-12-09T19:56:41.121Z,5.98
2018-12-09T19:59:16.847Z,6.00
2018-12-09T20:01:53.581Z,5.94
2018-12-09T20:04:29.704Z,5.93
2018-12-09T20:07:05.705Z,5.91
2018-12-09T20:09:41.396Z,5.84
2018-12-09T20:12:17.040Z,5.81
2018-12-09T20:14:52.913Z,5.77
2018-12-09T20:17:28.516Z,5.74
2018-12-09T20:20:04.612Z,5.69
2018-12-09T20:22:41.433Z,5.65
2018-12-09T20:25:17.701Z,5.60
2018-12-09T20:27:53.470Z,5.56
2018-12-09T20:30:29.336Z,5.53
2018-12-09T20:33:04.979Z,5.52
2018-12-09T20:35:40.768Z,5.46
2018-12-09T20:38:16.384Z,5.45
2018-12-09T20:40:53.009Z,5.45
2018-12-09T20:43:28.827Z,5.39
2018-12-09T20:46:04.778Z,5.37
2018-12-09T20:48:35.458Z,5.39
2018-12-09T20:51:11.228Z,5.42
2018-12-09T20:53:46.815Z,5.44
2018-12-09T20:56:23.253Z,5.38
2018-12-09T20:58:58.807Z,5.44
2018-12-09T21:01:34.456Z,5.37
2018-12-09T21:04:10.291Z,5.43
2018-12-09T21:06:46.151Z,5.47
2018-12-09T21:09:22.044Z,5.44
2018-12-09T21:11:57.800Z,5.46
2018-12-09T21:14:33.407Z,5.48
2018-12-09T21:17:09.189Z,5.51
2018-12-09T21:19:44.888Z,5.54
2018-12-09T21:22:20.762Z,5.50
2018-12-09T21:24:56.376Z,5.58
2018-12-09T21:27:32.983Z,5.56
2018-12-09T21:30:09.580Z,5.55
2018-12-09T21:32:45.360Z,5.54
2018-12-09T21:35:20.940Z,5.47
2018-12-09T21:37:57.319Z,5.41
2018-12-09T21:40:33.008Z,5.35
2018-12-09T21:43:08.675Z,5.31
2018-12-09T21:45:44.278Z,5.25
2018-12-09T21:48:19.941Z,5.22
2018-12-09T21:50:55.765Z,5.20
2018-12-09T21:53:31.414Z,5.20
2018-12-09T21:56:07.277Z,5.19
2018-12-09T21:58:42.906Z,5.20
2018-12-09T22:01:18.666Z,5.15
2018-12-09T22:03:54.433Z,5.04
2018-12-09T22:06:30.920Z,4.96
2018-12-09T22:09:07.679Z,4.96
2018-12-09T22:11:43.394Z,4.91
2018-12-09T22:14:19.422Z,4.92
2018-12-09T22:16:55.176Z,4.96
2018-12-09T22:19:31.092Z,4.96
2018-12-09T22:22:06.900Z,4.95
2018-12-09T22:24:42.561Z,4.83
2018-12-09T22:27:18.161Z,4.78
2018-12-09T22:29:53.977Z,4.77
2018-12-09T22:32:29.573Z,4.70
2018-12-09T22:35:05.593Z,4.65
2018-12-09T22:37:41.621Z,4.67
2018-12-09T22:40:17.212Z,4.66
2018-12-09T22:42:52.876Z,4.62
2018-12-09T22:45:28.560Z,4.60
2018-12-09T22:48:04.352Z,4.83
2018-12-09T22:50:40.007Z,4.83
2018-12-09T22:53:15.625Z,4.77
2018-12-09T22:55:51.189Z,4.76
2018-12-09T22:58:26.822Z,4.70
2018-12-09T23:01:07.760Z,4.68
2018-12-09T23:03:43.612Z,4.55
2018-12-09T23:06:19.245Z,4.61
2018-12-09T23:08:55.140Z,4.65
2018-12-09T23:11:30.944Z,4.67
2018-12-09T23:14:07.003Z,4.61
2018-12-09T23:16:43.189Z,4.64
2018-12-09T23:19:18.765Z,4.45
2018-12-09T23:21:54.578Z,4.33
2018-12-09T23:24:30.180Z,4.30
2018-12-09T23:27:05.735Z,4.36
2018-12-09T23:29:41.438Z,4.35
2018-12-09T23:32:19.749Z,4.47
2018-12-09T23:34:55.496Z,4.56
2018-12-09T23:37:31.168Z,4.57
2018-12-09T23:40:08.964Z,4.65
2018-12-09T23:42:44.926Z,4.63
2018-12-09T23:45:20.748Z,4.69
2018-12-09T23:47:56.436Z,4.74
2018-12-09T23:50:32.295Z,4.76
2018-12-09T23:53:07.984Z,4.74
2018-12-09T23:55:43.583Z,4.67
2018-12-09T23:58:19.339Z,4.72
